sensor_id;sensor_type;location;lat;lon;timestamp;pressure;altitude;pressure_sealevel;temperature
69364;BMP280;56526;55.406;86.130;2022-09-16T00:01:43;99459.75;;;6.69
69364;BMP280;56526;55.406;86.130;2022-09-16T00:04:09;99458.66;;;6.65
69364;BMP280;56526;55.406;86.130;2022-09-16T00:06:35;99457.63;;;6.60
69364;BMP280;56526;55.406;86.130;2022-09-16T00:09:02;99459.47;;;6.60
69364;BMP280;56526;55.406;86.130;2022-09-16T00:11:30;99462.88;;;6.60
69364;BMP280;56526;55.406;86.130;2022-09-16T00:13:58;99467.66;;;6.58
69364;BMP280;56526;55.406;86.130;2022-09-16T00:16:25;99472.13;;;6.58
69364;BMP280;56526;55.406;86.130;2022-09-16T00:18:58;99465.25;;;6.62
69364;BMP280;56526;55.406;86.130;2022-09-16T00:21:26;99468.66;;;6.63
69364;BMP280;56526;55.406;86.130;2022-09-16T00:23:54;99475.50;;;6.64
69364;BMP280;56526;55.406;86.130;2022-09-16T00:26:22;99476.28;;;6.64
69364;BMP280;56526;55.406;86.130;2022-09-16T00:28:49;99476.28;;;6.59
69364;BMP280;56526;55.406;86.130;2022-09-16T00:31:16;99473.16;;;6.57
69364;BMP280;56526;55.406;86.130;2022-09-16T00:33:42;99481.28;;;6.55
69364;BMP280;56526;55.406;86.130;2022-09-16T00:36:15;99475.78;;;6.57
69364;BMP280;56526;55.406;86.130;2022-09-16T00:38:44;99478.91;;;6.64
69364;BMP280;56526;55.406;86.130;2022-09-16T00:41:18;99477.09;;;6.70
69364;BMP280;56526;55.406;86.130;2022-09-16T00:46:25;99477.09;;;6.80
69364;BMP280;56526;55.406;86.130;2022-09-16T00:48:57;99487.34;;;6.81
69364;BMP280;56526;55.406;86.130;2022-09-16T00:51:27;99473.94;;;6.88
69364;BMP280;56526;55.406;86.130;2022-09-16T00:53:57;99476.03;;;6.96
69364;BMP280;56526;55.406;86.130;2022-09-16T00:56:27;99484.41;;;7.03
69364;BMP280;56526;55.406;86.130;2022-09-16T01:01:37;99489.13;;;7.11
69364;BMP280;56526;55.406;86.130;2022-09-16T01:04:25;99491.28;;;7.14
69364;BMP280;56526;55.406;86.130;2022-09-16T01:06:58;99494.94;;;7.23
69364;BMP280;56526;55.406;86.130;2022-09-16T01:09:25;99487.53;;;7.31
69364;BMP280;56526;55.406;86.130;2022-09-16T01:11:52;99484.88;;;7.41
69364;BMP280;56526;55.406;86.130;2022-09-16T01:14:20;99491.91;;;7.66
69364;BMP280;56526;55.406;86.130;2022-09-16T01:17:21;99492.84;;;8.34
69364;BMP280;56526;55.406;86.130;2022-09-16T01:20:30;99487.69;;;9.59
69364;BMP280;56526;55.406;86.130;2022-09-16T01:33:00;99508.00;;;12.25
69364;BMP280;56526;55.406;86.130;2022-09-16T01:35:53;99502.47;;;13.06
69364;BMP280;56526;55.406;86.130;2022-09-16T01:39:38;99504.63;;;13.86
69364;BMP280;56526;55.406;86.130;2022-09-16T01:45:16;99515.16;;;14.93
69364;BMP280;56526;55.406;86.130;2022-09-16T01:48:07;99515.00;;;15.19
69364;BMP280;56526;55.406;86.130;2022-09-16T01:53:45;99509.63;;;15.70
69364;BMP280;56526;55.406;86.130;2022-09-16T02:02:20;99502.47;;;16.27
69364;BMP280;56526;55.406;86.130;2022-09-16T02:04:57;99510.50;;;16.39
69364;BMP280;56526;55.406;86.130;2022-09-16T02:07:30;99515.09;;;16.51
69364;BMP280;56526;55.406;86.130;2022-09-16T02:10:19;99509.56;;;16.68
69364;BMP280;56526;55.406;86.130;2022-09-16T02:12:51;99505.19;;;16.76
69364;BMP280;56526;55.406;86.130;2022-09-16T02:15:22;99507.88;;;17.00
69364;BMP280;56526;55.406;86.130;2022-09-16T02:17:56;99510.03;;;17.35
69364;BMP280;56526;55.406;86.130;2022-09-16T02:20:27;99508.94;;;17.52
69364;BMP280;56526;55.406;86.130;2022-09-16T02:23:17;99501.94;;;17.75
69364;BMP280;56526;55.406;86.130;2022-09-16T02:25:47;99508.44;;;17.74
69364;BMP280;56526;55.406;86.130;2022-09-16T02:28:25;99515.63;;;17.58
69364;BMP280;56526;55.406;86.130;2022-09-16T02:30:56;99506.03;;;17.29
69364;BMP280;56526;55.406;86.130;2022-09-16T02:33:30;99506.88;;;17.33
69364;BMP280;56526;55.406;86.130;2022-09-16T02:36:00;99505.47;;;17.51
69364;BMP280;56526;55.406;86.130;2022-09-16T02:38:40;99509.88;;;17.71
69364;BMP280;56526;55.406;86.130;2022-09-16T02:41:08;99501.22;;;18.06
69364;BMP280;56526;55.406;86.130;2022-09-16T02:43:34;99512.72;;;18.06
69364;BMP280;56526;55.406;86.130;2022-09-16T02:55:02;99513.75;;;18.80
69364;BMP280;56526;55.406;86.130;2022-09-16T02:57:31;99514.47;;;18.96
69364;BMP280;56526;55.406;86.130;2022-09-16T02:59:57;99516.56;;;19.42
69364;BMP280;56526;55.406;86.130;2022-09-16T03:02:24;99511.69;;;19.47
69364;BMP280;56526;55.406;86.130;2022-09-16T03:04:50;99512.69;;;19.39
69364;BMP280;56526;55.406;86.130;2022-09-16T03:07:17;99516.63;;;19.64
69364;BMP280;56526;55.406;86.130;2022-09-16T03:09:45;99510.84;;;19.43
69364;BMP280;56526;55.406;86.130;2022-09-16T03:18:20;99507.56;;;19.34
69364;BMP280;56526;55.406;86.130;2022-09-16T03:21:09;99504.41;;;19.48
69364;BMP280;56526;55.406;86.130;2022-09-16T03:23:52;99518.78;;;19.55
69364;BMP280;56526;55.406;86.130;2022-09-16T03:27:19;99505.03;;;19.03
69364;BMP280;56526;55.406;86.130;2022-09-16T03:29:55;99507.66;;;18.99
69364;BMP280;56526;55.406;86.130;2022-09-16T03:32:59;99512.44;;;18.74
69364;BMP280;56526;55.406;86.130;2022-09-16T03:35:43;99503.66;;;18.93
69364;BMP280;56526;55.406;86.130;2022-09-16T03:38:12;99494.88;;;19.31
69364;BMP280;56526;55.406;86.130;2022-09-16T03:40:40;99513.94;;;19.64
69364;BMP280;56526;55.406;86.130;2022-09-16T03:43:12;99497.31;;;20.01
69364;BMP280;56526;55.406;86.130;2022-09-16T03:45:39;99505.03;;;19.60
69364;BMP280;56526;55.406;86.130;2022-09-16T03:48:05;99497.75;;;19.03
69364;BMP280;56526;55.406;86.130;2022-09-16T03:50:32;99502.59;;;18.78
69364;BMP280;56526;55.406;86.130;2022-09-16T03:52:58;99494.66;;;19.20
69364;BMP280;56526;55.406;86.130;2022-09-16T03:55:24;99502.50;;;19.48
69364;BMP280;56526;55.406;86.130;2022-09-16T03:57:52;99506.59;;;19.61
69364;BMP280;56526;55.406;86.130;2022-09-16T04:00:19;99510.34;;;19.57
69364;BMP280;56526;55.406;86.130;2022-09-16T04:02:46;99494.88;;;19.12
69364;BMP280;56526;55.406;86.130;2022-09-16T04:05:12;99501.72;;;19.48
69364;BMP280;56526;55.406;86.130;2022-09-16T04:07:38;99510.56;;;19.67
69364;BMP280;56526;55.406;86.130;2022-09-16T04:10:05;99495.09;;;19.22
69364;BMP280;56526;55.406;86.130;2022-09-16T04:12:32;99491.19;;;19.20
69364;BMP280;56526;55.406;86.130;2022-09-16T04:14:58;99499.63;;;19.18
69364;BMP280;56526;55.406;86.130;2022-09-16T04:17:25;99498.69;;;19.30
69364;BMP280;56526;55.406;86.130;2022-09-16T04:19:51;99489.25;;;19.36
69364;BMP280;56526;55.406;86.130;2022-09-16T04:22:18;99488.06;;;19.75
69364;BMP280;56526;55.406;86.130;2022-09-16T04:24:45;99483.47;;;19.76
69364;BMP280;56526;55.406;86.130;2022-09-16T04:27:11;99490.63;;;19.30
69364;BMP280;56526;55.406;86.130;2022-09-16T04:29:37;99498.13;;;19.40
69364;BMP280;56526;55.406;86.130;2022-09-16T04:32:04;99489.34;;;19.62
69364;BMP280;56526;55.406;86.130;2022-09-16T04:34:30;99480.69;;;19.50
69364;BMP280;56526;55.406;86.130;2022-09-16T04:36:57;99481.59;;;19.80
69364;BMP280;56526;55.406;86.130;2022-09-16T04:39:24;99485.53;;;20.09
69364;BMP280;56526;55.406;86.130;2022-09-16T04:41:50;99477.31;;;19.98
69364;BMP280;56526;55.406;86.130;2022-09-16T04:44:16;99475.81;;;20.01
69364;BMP280;56526;55.406;86.130;2022-09-16T04:46:42;99469.81;;;20.07
69364;BMP280;56526;55.406;86.130;2022-09-16T04:49:09;99475.56;;;19.87
69364;BMP280;56526;55.406;86.130;2022-09-16T04:51:35;99471.03;;;19.91
69364;BMP280;56526;55.406;86.130;2022-09-16T04:54:01;99466.88;;;20.16
69364;BMP280;56526;55.406;86.130;2022-09-16T04:56:29;99474.00;;;19.63
69364;BMP280;56526;55.406;86.130;2022-09-16T04:59:01;99468.09;;;19.99
69364;BMP280;56526;55.406;86.130;2022-09-16T05:01:35;99468.47;;;19.98
69364;BMP280;56526;55.406;86.130;2022-09-16T05:04:04;99455.25;;;19.86
69364;BMP280;56526;55.406;86.130;2022-09-16T05:06:34;99454.84;;;20.10
69364;BMP280;56526;55.406;86.130;2022-09-16T05:09:02;99464.09;;;20.12
69364;BMP280;56526;55.406;86.130;2022-09-16T05:11:31;99453.53;;;19.77
69364;BMP280;56526;55.406;86.130;2022-09-16T05:14:00;99466.34;;;20.07
69364;BMP280;56526;55.406;86.130;2022-09-16T05:16:28;99460.53;;;20.05
69364;BMP280;56526;55.406;86.130;2022-09-16T05:18:56;99458.75;;;19.67
69364;BMP280;56526;55.406;86.130;2022-09-16T05:21:25;99459.16;;;19.92
69364;BMP280;56526;55.406;86.130;2022-09-16T05:23:52;99458.88;;;19.74
69364;BMP280;56526;55.406;86.130;2022-09-16T05:26:21;99457.38;;;19.15
69364;BMP280;56526;55.406;86.130;2022-09-16T05:28:49;99455.78;;;19.33
69364;BMP280;56526;55.406;86.130;2022-09-16T05:31:23;99455.00;;;19.52
69364;BMP280;56526;55.406;86.130;2022-09-16T05:34:01;99442.50;;;19.37
69364;BMP280;56526;55.406;86.130;2022-09-16T05:36:31;99459.19;;;19.50
69364;BMP280;56526;55.406;86.130;2022-09-16T05:38:58;99450.53;;;18.98
69364;BMP280;56526;55.406;86.130;2022-09-16T05:41:25;99431.81;;;18.83
69364;BMP280;56526;55.406;86.130;2022-09-16T05:43:51;99443.03;;;18.88
69364;BMP280;56526;55.406;86.130;2022-09-16T05:46:20;99432.25;;;19.23
69364;BMP280;56526;55.406;86.130;2022-09-16T05:48:48;99437.91;;;19.38
69364;BMP280;56526;55.406;86.130;2022-09-16T05:51:17;99431.94;;;19.48
69364;BMP280;56526;55.406;86.130;2022-09-16T05:53:46;99433.94;;;19.54
69364;BMP280;56526;55.406;86.130;2022-09-16T05:56:15;99427.28;;;19.67
69364;BMP280;56526;55.406;86.130;2022-09-16T05:58:42;99441.31;;;19.80
69364;BMP280;56526;55.406;86.130;2022-09-16T06:01:12;99423.41;;;19.42
69364;BMP280;56526;55.406;86.130;2022-09-16T06:03:46;99426.53;;;19.67
69364;BMP280;56526;55.406;86.130;2022-09-16T06:06:23;99420.59;;;19.81
69364;BMP280;56526;55.406;86.130;2022-09-16T06:08:56;99414.78;;;19.33
69364;BMP280;56526;55.406;86.130;2022-09-16T06:11:25;99420.66;;;19.19
69364;BMP280;56526;55.406;86.130;2022-09-16T06:13:57;99408.13;;;19.46
69364;BMP280;56526;55.406;86.130;2022-09-16T06:16:27;99416.47;;;19.22
69364;BMP280;56526;55.406;86.130;2022-09-16T06:18:54;99407.97;;;18.97
69364;BMP280;56526;55.406;86.130;2022-09-16T06:21:21;99415.47;;;18.88
69364;BMP280;56526;55.406;86.130;2022-09-16T06:23:48;99413.44;;;19.04
69364;BMP280;56526;55.406;86.130;2022-09-16T06:26:16;99409.16;;;19.19
69364;BMP280;56526;55.406;86.130;2022-09-16T06:28:45;99392.13;;;19.11
69364;BMP280;56526;55.406;86.130;2022-09-16T06:31:18;99405.28;;;18.97
69364;BMP280;56526;55.406;86.130;2022-09-16T06:33:46;99396.78;;;18.95
69364;BMP280;56526;55.406;86.130;2022-09-16T06:36:15;99394.28;;;19.25
69364;BMP280;56526;55.406;86.130;2022-09-16T06:38:44;99403.72;;;18.96
69364;BMP280;56526;55.406;86.130;2022-09-16T06:41:12;99386.75;;;19.11
69364;BMP280;56526;55.406;86.130;2022-09-16T06:43:39;99383.66;;;19.09
69364;BMP280;56526;55.406;86.130;2022-09-16T06:46:08;99371.66;;;19.03
69364;BMP280;56526;55.406;86.130;2022-09-16T06:48:36;99378.16;;;19.02
69364;BMP280;56526;55.406;86.130;2022-09-16T06:51:08;99384.03;;;18.88
69364;BMP280;56526;55.406;86.130;2022-09-16T06:53:37;99380.69;;;19.56
69364;BMP280;56526;55.406;86.130;2022-09-16T06:56:25;99368.22;;;19.25
69364;BMP280;56526;55.406;86.130;2022-09-16T06:58:54;99383.84;;;18.78
69364;BMP280;56526;55.406;86.130;2022-09-16T07:01:25;99374.75;;;18.12
69364;BMP280;56526;55.406;86.130;2022-09-16T07:03:56;99372.25;;;18.04
69364;BMP280;56526;55.406;86.130;2022-09-16T07:06:27;99361.88;;;17.86
69364;BMP280;56526;55.406;86.130;2022-09-16T07:08:54;99359.91;;;17.83
69364;BMP280;56526;55.406;86.130;2022-09-16T07:11:22;99360.13;;;17.78
69364;BMP280;56526;55.406;86.130;2022-09-16T07:13:49;99347.84;;;17.62
69364;BMP280;56526;55.406;86.130;2022-09-16T07:16:21;99342.09;;;17.16
69364;BMP280;56526;55.406;86.130;2022-09-16T07:18:53;99338.59;;;16.60
69364;BMP280;56526;55.406;86.130;2022-09-16T07:21:23;99346.00;;;16.38
69364;BMP280;56526;55.406;86.130;2022-09-16T07:23:53;99352.78;;;16.24
69364;BMP280;56526;55.406;86.130;2022-09-16T07:26:30;99354.22;;;15.97
69364;BMP280;56526;55.406;86.130;2022-09-16T07:29:02;99337.22;;;15.89
69364;BMP280;56526;55.406;86.130;2022-09-16T07:31:35;99337.97;;;15.78
69364;BMP280;56526;55.406;86.130;2022-09-16T07:34:04;99340.19;;;15.76
69364;BMP280;56526;55.406;86.130;2022-09-16T07:36:37;99345.44;;;15.84
69364;BMP280;56526;55.406;86.130;2022-09-16T07:39:08;99344.31;;;15.85
69364;BMP280;56526;55.406;86.130;2022-09-16T07:41:38;99340.00;;;16.05
69364;BMP280;56526;55.406;86.130;2022-09-16T07:44:08;99336.34;;;16.10
69364;BMP280;56526;55.406;86.130;2022-09-16T07:46:39;99327.19;;;15.98
69364;BMP280;56526;55.406;86.130;2022-09-16T07:49:07;99322.66;;;16.11
69364;BMP280;56526;55.406;86.130;2022-09-16T07:51:36;99325.31;;;16.23
69364;BMP280;56526;55.406;86.130;2022-09-16T07:54:06;99320.66;;;16.20
69364;BMP280;56526;55.406;86.130;2022-09-16T07:56:35;99324.09;;;16.09
69364;BMP280;56526;55.406;86.130;2022-09-16T07:59:05;99317.41;;;16.02
69364;BMP280;56526;55.406;86.130;2022-09-16T08:01:36;99314.53;;;15.95
69364;BMP280;56526;55.406;86.130;2022-09-16T08:04:02;99316.41;;;15.83
69364;BMP280;56526;55.406;86.130;2022-09-16T08:06:30;99297.16;;;15.77
69364;BMP280;56526;55.406;86.130;2022-09-16T08:08:59;99309.72;;;15.77
69364;BMP280;56526;55.406;86.130;2022-09-16T08:11:29;99299.28;;;15.96
69364;BMP280;56526;55.406;86.130;2022-09-16T08:14:00;99311.28;;;16.14
69364;BMP280;56526;55.406;86.130;2022-09-16T08:16:27;99301.25;;;16.23
69364;BMP280;56526;55.406;86.130;2022-09-16T08:18:55;99308.16;;;16.12
69364;BMP280;56526;55.406;86.130;2022-09-16T08:21:25;99313.63;;;16.03
69364;BMP280;56526;55.406;86.130;2022-09-16T08:23:53;99303.06;;;15.95
69364;BMP280;56526;55.406;86.130;2022-09-16T08:26:21;99300.06;;;15.84
69364;BMP280;56526;55.406;86.130;2022-09-16T08:28:48;99300.59;;;15.78
69364;BMP280;56526;55.406;86.130;2022-09-16T08:31:16;99299.50;;;15.79
69364;BMP280;56526;55.406;86.130;2022-09-16T08:33:44;99312.63;;;15.72
69364;BMP280;56526;55.406;86.130;2022-09-16T08:36:18;99307.03;;;15.52
69364;BMP280;56526;55.406;86.130;2022-09-16T08:38:50;99296.00;;;15.42
69364;BMP280;56526;55.406;86.130;2022-09-16T08:47:26;99297.47;;;15.63
69364;BMP280;56526;55.406;86.130;2022-09-16T08:50:03;99280.94;;;15.70
69364;BMP280;56526;55.406;86.130;2022-09-16T08:52:37;99287.06;;;15.71
69364;BMP280;56526;55.406;86.130;2022-09-16T08:57:51;99287.84;;;15.71
69364;BMP280;56526;55.406;86.130;2022-09-16T09:00:20;99289.25;;;15.56
69364;BMP280;56526;55.406;86.130;2022-09-16T09:03:02;99285.09;;;15.47
69364;BMP280;56526;55.406;86.130;2022-09-16T09:05:57;99285.53;;;15.37
69364;BMP280;56526;55.406;86.130;2022-09-16T09:08:51;99282.22;;;15.52
69364;BMP280;56526;55.406;86.130;2022-09-16T09:21:30;99278.91;;;15.67
69364;BMP280;56526;55.406;86.130;2022-09-16T09:30:26;99281.38;;;15.15
69364;BMP280;56526;55.406;86.130;2022-09-16T09:47:38;99275.72;;;15.16
69364;BMP280;56526;55.406;86.130;2022-09-16T09:50:16;99279.06;;;15.25
69364;BMP280;56526;55.406;86.130;2022-09-16T09:55:40;99276.84;;;15.27
69364;BMP280;56526;55.406;86.130;2022-09-16T10:00:42;99277.00;;;15.10
69364;BMP280;56526;55.406;86.130;2022-09-16T10:03:16;99276.69;;;15.12
69364;BMP280;56526;55.406;86.130;2022-09-16T10:05:44;99269.38;;;15.21
69364;BMP280;56526;55.406;86.130;2022-09-16T10:08:44;99267.00;;;15.40
69364;BMP280;56526;55.406;86.130;2022-09-16T10:11:20;99267.22;;;15.47
69364;BMP280;56526;55.406;86.130;2022-09-16T10:13:58;99264.09;;;15.57
69364;BMP280;56526;55.406;86.130;2022-09-16T10:16:34;99268.66;;;15.69
69364;BMP280;56526;55.406;86.130;2022-09-16T10:21:40;99268.91;;;15.52
69364;BMP280;56526;55.406;86.130;2022-09-16T10:24:34;99265.31;;;15.36
69364;BMP280;56526;55.406;86.130;2022-09-16T10:27:22;99251.59;;;15.13
69364;BMP280;56526;55.406;86.130;2022-09-16T10:30:16;99261.84;;;15.02
69364;BMP280;56526;55.406;86.130;2022-09-16T10:33:06;99263.66;;;14.98
69364;BMP280;56526;55.406;86.130;2022-09-16T10:35:59;99265.34;;;14.82
69364;BMP280;56526;55.406;86.130;2022-09-16T10:38:39;99264.63;;;14.73
69364;BMP280;56526;55.406;86.130;2022-09-16T10:41:23;99269.84;;;14.69
69364;BMP280;56526;55.406;86.130;2022-09-16T10:44:12;99262.84;;;14.65
69364;BMP280;56526;55.406;86.130;2022-09-16T10:47:15;99266.97;;;14.53
69364;BMP280;56526;55.406;86.130;2022-09-16T10:50:00;99268.88;;;14.53
69364;BMP280;56526;55.406;86.130;2022-09-16T10:52:31;99267.13;;;14.57
69364;BMP280;56526;55.406;86.130;2022-09-16T10:55:28;99268.19;;;14.65
69364;BMP280;56526;55.406;86.130;2022-09-16T10:58:17;99265.31;;;14.70
69364;BMP280;56526;55.406;86.130;2022-09-16T11:07:08;99258.50;;;14.72
69364;BMP280;56526;55.406;86.130;2022-09-16T11:18:26;99264.06;;;14.46
69364;BMP280;56526;55.406;86.130;2022-09-16T11:21:09;99262.41;;;14.33
69364;BMP280;56526;55.406;86.130;2022-09-16T11:24:35;99258.91;;;14.20
69364;BMP280;56526;55.406;86.130;2022-09-16T11:30:14;99265.72;;;14.01
69364;BMP280;56526;55.406;86.130;2022-09-16T11:39:06;99257.72;;;13.71
69364;BMP280;56526;55.406;86.130;2022-09-16T11:42:01;99264.19;;;13.62
69364;BMP280;56526;55.406;86.130;2022-09-16T11:44:45;99263.09;;;13.54
69364;BMP280;56526;55.406;86.130;2022-09-16T11:53:44;99261.56;;;13.36
69364;BMP280;56526;55.406;86.130;2022-09-16T11:56:26;99260.03;;;13.26
69364;BMP280;56526;55.406;86.130;2022-09-16T12:02:01;99260.81;;;13.18
69364;BMP280;56526;55.406;86.130;2022-09-16T12:07:54;99260.97;;;13.04
69364;BMP280;56526;55.406;86.130;2022-09-16T12:10:42;99263.00;;;12.99
69364;BMP280;56526;55.406;86.130;2022-09-16T12:13:41;99258.97;;;12.93
69364;BMP280;56526;55.406;86.130;2022-09-16T12:16:09;99259.13;;;12.88
69364;BMP280;56526;55.406;86.130;2022-09-16T12:18:41;99257.22;;;12.79
69364;BMP280;56526;55.406;86.130;2022-09-16T12:21:24;99260.84;;;12.75
69364;BMP280;56526;55.406;86.130;2022-09-16T12:24:23;99258.47;;;12.65
69364;BMP280;56526;55.406;86.130;2022-09-16T12:27:36;99261.28;;;12.60
69364;BMP280;56526;55.406;86.130;2022-09-16T12:30:22;99259.56;;;12.55
69364;BMP280;56526;55.406;86.130;2022-09-16T12:33:14;99255.63;;;12.52
69364;BMP280;56526;55.406;86.130;2022-09-16T12:36:05;99262.69;;;12.48
69364;BMP280;56526;55.406;86.130;2022-09-16T12:38:33;99266.53;;;12.42
69364;BMP280;56526;55.406;86.130;2022-09-16T12:47:28;99273.53;;;12.30
69364;BMP280;56526;55.406;86.130;2022-09-16T12:56:45;99277.59;;;12.19
69364;BMP280;56526;55.406;86.130;2022-09-16T13:02:36;99271.31;;;12.06
69364;BMP280;56526;55.406;86.130;2022-09-16T13:08:04;99276.56;;;11.97
69364;BMP280;56526;55.406;86.130;2022-09-16T13:10:44;99282.19;;;11.96
69364;BMP280;56526;55.406;86.130;2022-09-16T13:13:41;99280.09;;;11.93
69364;BMP280;56526;55.406;86.130;2022-09-16T13:16:11;99286.34;;;11.88
69364;BMP280;56526;55.406;86.130;2022-09-16T13:18:47;99287.56;;;11.82
69364;BMP280;56526;55.406;86.130;2022-09-16T13:23:52;99293.59;;;11.74
69364;BMP280;56526;55.406;86.130;2022-09-16T13:26:43;99289.38;;;11.73
69364;BMP280;56526;55.406;86.130;2022-09-16T13:29:41;99297.19;;;11.69
69364;BMP280;56526;55.406;86.130;2022-09-16T13:32:25;99299.81;;;11.69
69364;BMP280;56526;55.406;86.130;2022-09-16T13:35:04;99298.25;;;11.68
69364;BMP280;56526;55.406;86.130;2022-09-16T13:37:46;99295.91;;;11.67
69364;BMP280;56526;55.406;86.130;2022-09-16T13:40:20;99302.28;;;11.66
69364;BMP280;56526;55.406;86.130;2022-09-16T13:43:12;99303.66;;;11.63
69364;BMP280;56526;55.406;86.130;2022-09-16T13:45:45;99297.91;;;11.61
69364;BMP280;56526;55.406;86.130;2022-09-16T13:50:57;99291.16;;;11.55
69364;BMP280;56526;55.406;86.130;2022-09-16T13:53:36;99293.63;;;11.52
69364;BMP280;56526;55.406;86.130;2022-09-16T14:13:46;99304.09;;;11.34
69364;BMP280;56526;55.406;86.130;2022-09-16T14:16:25;99302.34;;;11.30
69364;BMP280;56526;55.406;86.130;2022-09-16T14:21:46;99301.63;;;11.15
69364;BMP280;56526;55.406;86.130;2022-09-16T14:24:36;99305.47;;;11.09
69364;BMP280;56526;55.406;86.130;2022-09-16T14:27:05;99305.56;;;11.04
69364;BMP280;56526;55.406;86.130;2022-09-16T14:29:59;99310.22;;;10.99
69364;BMP280;56526;55.406;86.130;2022-09-16T14:32:29;99307.34;;;10.95
69364;BMP280;56526;55.406;86.130;2022-09-16T14:35:02;99301.59;;;10.93
69364;BMP280;56526;55.406;86.130;2022-09-16T14:37:36;99309.03;;;10.91
69364;BMP280;56526;55.406;86.130;2022-09-16T14:40:10;99309.59;;;10.88
69364;BMP280;56526;55.406;86.130;2022-09-16T14:42:55;99312.09;;;10.85
69364;BMP280;56526;55.406;86.130;2022-09-16T14:45:24;99316.91;;;10.82
69364;BMP280;56526;55.406;86.130;2022-09-16T14:47:52;99319.84;;;10.81
69364;BMP280;56526;55.406;86.130;2022-09-16T14:50:22;99325.13;;;10.81
69364;BMP280;56526;55.406;86.130;2022-09-16T14:52:55;99311.91;;;10.81
69364;BMP280;56526;55.406;86.130;2022-09-16T14:55:27;99315.63;;;10.80
69364;BMP280;56526;55.406;86.130;2022-09-16T14:57:55;99315.09;;;10.78
69364;BMP280;56526;55.406;86.130;2022-09-16T15:00:26;99327.38;;;10.74
69364;BMP280;56526;55.406;86.130;2022-09-16T15:06:16;99319.94;;;10.62
69364;BMP280;56526;55.406;86.130;2022-09-16T15:08:50;99323.97;;;10.60
69364;BMP280;56526;55.406;86.130;2022-09-16T15:11:24;99328.28;;;10.56
69364;BMP280;56526;55.406;86.130;2022-09-16T15:13:53;99325.47;;;10.52
69364;BMP280;56526;55.406;86.130;2022-09-16T15:16:21;99317.28;;;10.48
69364;BMP280;56526;55.406;86.130;2022-09-16T15:18:59;99324.16;;;10.49
69364;BMP280;56526;55.406;86.130;2022-09-16T15:21:32;99322.28;;;10.50
69364;BMP280;56526;55.406;86.130;2022-09-16T15:24:02;99319.78;;;10.45
69364;BMP280;56526;55.406;86.130;2022-09-16T15:26:40;99328.78;;;10.44
69364;BMP280;56526;55.406;86.130;2022-09-16T15:31:47;99328.34;;;10.37
69364;BMP280;56526;55.406;86.130;2022-09-16T15:36:51;99321.53;;;10.36
69364;BMP280;56526;55.406;86.130;2022-09-16T15:39:27;99324.94;;;10.36
69364;BMP280;56526;55.406;86.130;2022-09-16T15:42:13;99320.41;;;10.37
69364;BMP280;56526;55.406;86.130;2022-09-16T15:47:29;99321.31;;;10.32
69364;BMP280;56526;55.406;86.130;2022-09-16T15:52:32;99319.56;;;10.28
69364;BMP280;56526;55.406;86.130;2022-09-16T15:55:02;99318.28;;;10.25
69364;BMP280;56526;55.406;86.130;2022-09-16T15:57:40;99316.72;;;10.24
69364;BMP280;56526;55.406;86.130;2022-09-16T16:00:10;99315.91;;;10.24
69364;BMP280;56526;55.406;86.130;2022-09-16T16:05:37;99322.56;;;10.21
69364;BMP280;56526;55.406;86.130;2022-09-16T16:08:36;99318.03;;;10.22
69364;BMP280;56526;55.406;86.130;2022-09-16T16:11:20;99316.00;;;10.19
69364;BMP280;56526;55.406;86.130;2022-09-16T16:13:47;99320.31;;;10.14
69364;BMP280;56526;55.406;86.130;2022-09-16T16:16:14;99321.19;;;10.10
69364;BMP280;56526;55.406;86.130;2022-09-16T16:18:44;99317.56;;;10.06
69364;BMP280;56526;55.406;86.130;2022-09-16T16:21:13;99325.28;;;10.02
69364;BMP280;56526;55.406;86.130;2022-09-16T16:23:40;99321.16;;;9.96
69364;BMP280;56526;55.406;86.130;2022-09-16T16:26:08;99322.81;;;9.92
69364;BMP280;56526;55.406;86.130;2022-09-16T16:28:35;99313.88;;;9.88
69364;BMP280;56526;55.406;86.130;2022-09-16T16:31:09;99322.88;;;9.87
69364;BMP280;56526;55.406;86.130;2022-09-16T16:33:40;99314.50;;;9.85
69364;BMP280;56526;55.406;86.130;2022-09-16T16:36:08;99314.78;;;9.84
69364;BMP280;56526;55.406;86.130;2022-09-16T16:38:34;99316.59;;;9.83
69364;BMP280;56526;55.406;86.130;2022-09-16T16:41:01;99309.53;;;9.78
69364;BMP280;56526;55.406;86.130;2022-09-16T16:43:28;99323.38;;;9.75
69364;BMP280;56526;55.406;86.130;2022-09-16T16:45:55;99321.78;;;9.74
69364;BMP280;56526;55.406;86.130;2022-09-16T16:48:23;99321.25;;;9.72
69364;BMP280;56526;55.406;86.130;2022-09-16T16:51:00;99330.28;;;9.71
69364;BMP280;56526;55.406;86.130;2022-09-16T16:53:28;99328.69;;;9.70
69364;BMP280;56526;55.406;86.130;2022-09-16T16:56:03;99328.81;;;9.65
69364;BMP280;56526;55.406;86.130;2022-09-16T16:58:32;99336.78;;;9.60
69364;BMP280;56526;55.406;86.130;2022-09-16T17:01:17;99329.75;;;9.56
69364;BMP280;56526;55.406;86.130;2022-09-16T17:03:45;99331.06;;;9.53
69364;BMP280;56526;55.406;86.130;2022-09-16T17:06:12;99330.88;;;9.49
69364;BMP280;56526;55.406;86.130;2022-09-16T17:08:39;99335.97;;;9.46
69364;BMP280;56526;55.406;86.130;2022-09-16T17:11:13;99333.34;;;9.41
69364;BMP280;56526;55.406;86.130;2022-09-16T17:13:46;99333.72;;;9.34
69364;BMP280;56526;55.406;86.130;2022-09-16T17:16:16;99331.69;;;9.31
69364;BMP280;56526;55.406;86.130;2022-09-16T17:18:45;99329.09;;;9.26
69364;BMP280;56526;55.406;86.130;2022-09-16T17:21:18;99334.13;;;9.23
69364;BMP280;56526;55.406;86.130;2022-09-16T17:23:45;99325.25;;;9.19
69364;BMP280;56526;55.406;86.130;2022-09-16T17:26:12;99328.16;;;9.17
69364;BMP280;56526;55.406;86.130;2022-09-16T17:28:41;99320.50;;;9.15
69364;BMP280;56526;55.406;86.130;2022-09-16T17:31:10;99316.56;;;9.13
69364;BMP280;56526;55.406;86.130;2022-09-16T17:33:40;99327.44;;;9.11
69364;BMP280;56526;55.406;86.130;2022-09-16T17:36:07;99321.66;;;9.09
69364;BMP280;56526;55.406;86.130;2022-09-16T17:38:36;99319.59;;;9.06
69364;BMP280;56526;55.406;86.130;2022-09-16T17:41:09;99320.91;;;9.04
69364;BMP280;56526;55.406;86.130;2022-09-16T17:43:37;99323.66;;;8.99
69364;BMP280;56526;55.406;86.130;2022-09-16T17:46:06;99316.56;;;8.94